createdAt,value
2023-03-23T15:59:11.745Z,1.90
2023-03-23T16:01:57.800Z,1.90
2023-03-23T16:04:45.263Z,2.28
2023-03-23T16:07:32.488Z,2.00
2023-03-23T16:10:20.020Z,2.10
2023-03-23T16:13:06.250Z,2.00
2023-03-23T16:15:51.981Z,2.17
2023-03-23T16:18:37.292Z,1.92
2023-03-23T16:21:23.011Z,1.73
2023-03-23T16:24:09.844Z,2.00
2023-03-23T16:26:55.508Z,1.90
2023-03-23T16:35:17.696Z,2.00
2023-03-23T16:38:07.772Z,2.03
2023-03-23T16:40:54.696Z,2.30
2023-03-23T16:43:40.072Z,2.17
2023-03-23T16:46:25.686Z,2.55
2023-03-23T16:49:11.185Z,2.17
2023-03-23T16:51:56.664Z,2.15
2023-03-23T16:54:42.081Z,2.28
2023-03-23T16:57:28.783Z,2.40
2023-03-23T17:00:20.077Z,2.30
2023-03-23T17:03:05.725Z,2.40
2023-03-23T17:05:52.503Z,2.00
2023-03-23T17:08:38.035Z,2.10
2023-03-23T17:11:23.549Z,2.20
2023-03-23T17:14:09.179Z,2.28
2023-03-23T17:16:54.706Z,2.40
2023-03-23T17:19:40.254Z,2.60
2023-03-23T17:22:25.863Z,2.42
2023-03-23T17:25:11.566Z,2.22
2023-03-23T17:27:57.593Z,2.17
2023-03-23T17:30:53.299Z,2.30
2023-03-23T17:33:38.793Z,2.53
2023-03-23T17:36:24.461Z,2.10
2023-03-23T17:39:10.345Z,2.08
2023-03-23T17:41:55.850Z,2.55
2023-03-23T17:44:41.990Z,2.38
2023-03-23T17:47:27.676Z,2.95
2023-03-23T17:50:13.787Z,2.70
2023-03-23T17:53:01.524Z,2.80
2023-03-23T17:55:46.796Z,2.80
2023-03-23T17:58:32.395Z,3.28
2023-03-23T18:01:18.269Z,3.00
2023-03-23T18:04:04.532Z,2.40
2023-03-23T18:06:50.717Z,2.58
2023-03-23T18:09:36.610Z,2.53
2023-03-23T18:12:21.908Z,2.33
2023-03-23T18:15:09.154Z,2.25
2023-03-23T18:17:54.863Z,2.70
2023-03-23T18:20:40.621Z,3.03
2023-03-23T18:23:26.958Z,3.58
2023-03-23T18:26:14.291Z,3.10
2023-03-23T18:28:59.702Z,3.20
2023-03-23T18:31:45.289Z,3.60
2023-03-23T18:34:32.088Z,2.90
2023-03-23T18:37:17.640Z,3.40
2023-03-23T18:40:05.726Z,3.40
2023-03-23T18:42:51.278Z,3.00
2023-03-23T18:45:37.827Z,3.03
2023-03-23T18:48:24.058Z,3.53
2023-03-23T18:51:10.479Z,3.80
2023-03-23T18:53:55.995Z,3.70
2023-03-23T18:56:41.630Z,3.72
2023-03-23T18:59:30.429Z,3.30
2023-03-23T19:02:18.477Z,3.45
2023-03-23T19:05:04.076Z,3.30
2023-03-23T19:07:49.365Z,3.40
2023-03-23T19:10:40.736Z,3.50
2023-03-23T19:13:27.784Z,3.63
2023-03-23T19:16:13.613Z,3.47
2023-03-23T19:19:01.639Z,4.03
2023-03-23T19:21:47.380Z,3.97
2023-03-23T19:24:32.543Z,3.92
2023-03-23T19:27:18.923Z,5.38
2023-03-23T19:30:05.464Z,5.20
2023-03-23T19:32:50.826Z,5.63
2023-03-23T19:35:36.217Z,4.95
2023-03-23T19:38:22.865Z,5.30
2023-03-23T19:41:08.405Z,5.05
2023-03-23T19:43:54.874Z,4.18
2023-03-23T19:46:40.291Z,4.63
2023-03-23T19:49:26.399Z,5.65
2023-03-23T19:52:14.430Z,5.70
2023-03-23T19:55:01.255Z,6.25
2023-03-23T19:57:46.845Z,6.10
2023-03-23T20:00:34.359Z,5.70
2023-03-23T20:03:21.466Z,4.82
2023-03-23T20:06:11.119Z,5.97
2023-03-23T20:09:00.120Z,5.30
2023-03-23T20:11:46.205Z,5.18
2023-03-23T20:14:31.622Z,5.43
2023-03-23T20:17:17.166Z,5.85
2023-03-23T20:20:04.619Z,6.43
2023-03-23T20:22:52.658Z,5.82
2023-03-23T20:25:39.169Z,5.47
2023-03-23T20:28:24.472Z,5.10
2023-03-23T20:31:23.277Z,5.80
2023-03-23T20:34:28.525Z,5.82
2023-03-23T20:37:16.396Z,5.10
2023-03-23T20:40:03.118Z,5.32
2023-03-23T20:42:49.166Z,5.28
2023-03-23T20:45:34.422Z,4.88
2023-03-23T20:48:20.143Z,4.70
2023-03-23T20:51:08.070Z,4.10
2023-03-23T20:53:54.812Z,4.78
2023-03-23T20:56:40.897Z,7.07
2023-03-23T20:59:26.327Z,5.95
2023-03-23T21:02:15.360Z,5.60
2023-03-23T21:05:05.035Z,5.32
2023-03-23T21:07:51.093Z,6.43
2023-03-23T21:10:36.427Z,5.80
2023-03-23T21:13:22.116Z,6.30
2023-03-23T21:16:08.366Z,6.25
2023-03-23T21:18:53.515Z,6.25
2023-03-23T21:21:55.990Z,5.47
2023-03-23T21:24:42.527Z,5.32
2023-03-23T21:27:28.297Z,5.30
2023-03-23T21:30:14.375Z,4.68
2023-03-23T21:32:59.948Z,4.53
2023-03-23T21:35:45.720Z,5.95
2023-03-23T21:38:31.080Z,5.40
2023-03-23T21:41:16.369Z,5.60
2023-03-23T21:44:04.035Z,4.55
2023-03-23T21:46:52.223Z,5.93
2023-03-23T21:49:40.463Z,8.43
2023-03-23T21:52:26.925Z,6.25
2023-03-23T21:55:12.671Z,15.20
2023-03-23T21:57:58.562Z,7.50
2023-03-23T22:00:47.150Z,4.50
2023-03-23T22:03:35.274Z,5.03
2023-03-23T22:06:26.231Z,4.90
2023-03-23T22:09:12.137Z,4.32
2023-03-23T22:11:57.789Z,4.35
2023-03-23T22:14:43.455Z,4.60
2023-03-23T22:17:28.748Z,4.38
2023-03-23T22:20:14.280Z,4.43
2023-03-23T22:22:59.704Z,5.05
2023-03-23T22:25:45.020Z,4.63
2023-03-23T22:28:31.261Z,4.82
2023-03-23T22:31:23.728Z,4.32
2023-03-23T22:34:10.636Z,3.30
2023-03-23T22:36:57.043Z,3.00
2023-03-23T22:39:42.434Z,2.75
2023-03-23T22:42:28.362Z,2.45
2023-03-23T22:45:14.045Z,2.83
2023-03-23T22:47:59.863Z,3.10
2023-03-23T22:50:47.378Z,3.33
2023-03-23T22:53:33.432Z,3.50
2023-03-23T22:56:19.225Z,3.35
2023-03-23T22:59:06.805Z,3.47
2023-03-23T23:01:52.188Z,3.60
2023-03-23T23:04:37.622Z,3.67
2023-03-23T23:07:23.333Z,3.33
2023-03-23T23:10:09.585Z,3.35
2023-03-23T23:12:55.131Z,3.35
2023-03-23T23:15:43.487Z,3.45
2023-03-23T23:18:31.050Z,3.38
2023-03-23T23:21:19.256Z,3.60
2023-03-23T23:24:04.947Z,3.70
2023-03-23T23:26:50.214Z,3.00
2023-03-23T23:29:35.564Z,3.35
2023-03-23T23:32:21.142Z,3.40
2023-03-23T23:35:06.744Z,3.22
2023-03-23T23:37:52.619Z,3.10
2023-03-23T23:40:41.282Z,3.50
2023-03-23T23:43:26.698Z,3.60
2023-03-23T23:46:12.230Z,2.97
2023-03-23T23:48:58.967Z,3.53
2023-03-23T23:51:44.831Z,3.85
2023-03-23T23:54:30.678Z,3.30
2023-03-23T23:57:16.710Z,3.30
